CheckWX is a tool to help pilots better visualize weather data.  It is not intended as a substitute for an official pre-flight weather briefing.

04:20:25 UTC

EGLF METAR
Farnborough Airport
Farnborough, United Kingdom
Current

30 mins ago

EGLF 270350Z AUTO 04010KT 010V070 9999 OVC012/// 13/11 Q1028
Observed
Jun-27 @ 03:50 UTC
Wind
  • 040° at 10 KTS
Visibility
10,000+ meters
Flight Rules
MVFR
Cloud Levels
  • Overcast at 1,200' AGL
Temperature
13°C / 55°F
Dewpoint
11°C / 52°F
Humidity
88%
Altimeter
30.35" Hg
Pressure
1027.92 hPa
Previous

60 mins ago

EGLF 270320Z AUTO 04009KT 010V070 9999 OVC012/// 13/11 Q1029
Observed
Jun-27 @ 03:20 UTC
Wind
  • 040° at 9 KTS
Visibility
10,000+ meters
Flight Rules
MVFR
Cloud Levels
  • Overcast at 1,200' AGL
Temperature
13°C / 55°F
Dewpoint
11°C / 52°F
Humidity
88%
Altimeter
30.38" Hg
Pressure
1028.92 hPa
Previous

2 hours ago

EGLF 270250Z AUTO 04008KT 9999 OVC012/// 13/11 Q1029
Observed
Jun-27 @ 02:50 UTC
Wind
  • 040° at 8 KTS
Visibility
10,000+ meters
Flight Rules
MVFR
Cloud Levels
  • Overcast at 1,200' AGL
Temperature
13°C / 55°F
Dewpoint
11°C / 52°F
Humidity
88%
Altimeter
30.38" Hg
Pressure
1028.92 hPa